createdAt,value
2023-04-21T00:01:43.917Z,98778.84
2023-04-21T00:04:13.568Z,98771.53
2023-04-21T00:06:41.744Z,98769.28
2023-04-21T00:09:09.092Z,98775.69
2023-04-21T00:11:36.071Z,98774.34
2023-04-21T00:14:03.216Z,98775.38
2023-04-21T00:16:30.101Z,98779.13
2023-04-21T00:18:57.323Z,98771.34
2023-04-21T00:21:24.156Z,98775.09
2023-04-21T00:23:51.254Z,98772.78
2023-04-21T00:26:18.164Z,98772.03
2023-04-21T00:28:45.293Z,98768.75
2023-04-21T00:31:12.274Z,98771.69
2023-04-21T00:33:39.465Z,98775.50
2023-04-21T00:36:06.527Z,98778.22
2023-04-21T00:38:33.773Z,98774.75
2023-04-21T00:41:00.659Z,98774.06
2023-04-21T00:43:28.054Z,98770.63
2023-04-21T00:45:54.929Z,98769.00
2023-04-21T00:48:22.036Z,98770.03
2023-04-21T00:50:48.962Z,98767.56
2023-04-21T00:53:16.548Z,98767.72
2023-04-21T00:55:43.504Z,98774.94
2023-04-21T00:58:10.829Z,98769.91
2023-04-21T01:00:39.459Z,98761.34
2023-04-21T01:03:08.098Z,98767.59
2023-04-21T01:05:35.289Z,98765.13
2023-04-21T01:08:02.883Z,98756.56
2023-04-21T01:10:30.103Z,98766.13
2023-04-21T01:12:57.274Z,98767.84
2023-04-21T01:15:24.884Z,98766.91
2023-04-21T01:17:53.328Z,98768.00
2023-04-21T01:20:20.281Z,98771.59
2023-04-21T01:22:47.921Z,98770.78
2023-04-21T01:25:15.126Z,98769.09
2023-04-21T01:27:42.291Z,98769.94
2023-04-21T01:30:10.229Z,98775.06
2023-04-21T01:32:37.567Z,98772.44
2023-04-21T01:35:06.610Z,98776.00
2023-04-21T01:37:34.568Z,98777.03
2023-04-21T01:40:05.664Z,98771.78
2023-04-21T01:42:34.422Z,98770.00
2023-04-21T01:45:01.345Z,98765.56
2023-04-21T01:47:28.528Z,98770.78
2023-04-21T01:49:55.520Z,98772.56
2023-04-21T01:52:22.726Z,98767.28
2023-04-21T01:54:49.920Z,98773.25
2023-04-21T01:57:18.153Z,98771.47
2023-04-21T01:59:45.703Z,98773.94
2023-04-21T02:02:13.026Z,98777.28
2023-04-21T02:04:40.216Z,98772.78
2023-04-21T02:07:07.546Z,98774.50
2023-04-21T02:09:34.473Z,98777.91
2023-04-21T02:12:02.459Z,98780.63
2023-04-21T02:14:29.437Z,98785.84
2023-04-21T02:16:56.541Z,98784.09
2023-04-21T02:19:23.988Z,98789.22
2023-04-21T02:21:51.251Z,98791.00
2023-04-21T02:24:18.240Z,98786.59
2023-04-21T02:26:45.579Z,98787.44
2023-04-21T02:29:12.516Z,98784.91
2023-04-21T02:31:54.294Z,98783.31
2023-04-21T02:34:21.535Z,98784.41
2023-04-21T02:36:48.730Z,98789.78
2023-04-21T02:39:15.578Z,98782.78
2023-04-21T02:41:42.719Z,98781.81
2023-04-21T02:44:09.602Z,98776.56
2023-04-21T02:49:20.319Z,98779.03
2023-04-21T02:51:48.058Z,98784.31
2023-04-21T02:54:14.894Z,98773.00
2023-04-21T02:56:42.008Z,98786.09
2023-04-21T02:59:08.937Z,98782.59
2023-04-21T03:01:36.152Z,98787.72
2023-04-21T03:04:03.119Z,98786.06
2023-04-21T03:06:30.394Z,98792.19
2023-04-21T03:08:57.402Z,98781.84
2023-04-21T03:11:24.604Z,98786.28
2023-04-21T03:13:51.435Z,98778.50
2023-04-21T03:16:19.881Z,98773.38
2023-04-21T03:18:46.794Z,98773.44
2023-04-21T03:21:14.162Z,98778.63
2023-04-21T03:23:41.092Z,98773.31
2023-04-21T03:26:09.052Z,98778.53
2023-04-21T03:28:36.244Z,98775.03
2023-04-21T03:31:03.653Z,98772.44
2023-04-21T03:33:30.490Z,98776.03
2023-04-21T03:35:57.641Z,98780.50
2023-04-21T03:38:24.592Z,98777.09
2023-04-21T03:40:51.781Z,98771.91
2023-04-21T03:43:18.706Z,98779.78
2023-04-21T03:45:46.706Z,98776.97
2023-04-21T03:48:13.688Z,98772.66
2023-04-21T03:50:41.013Z,98777.09
2023-04-21T03:53:07.918Z,98769.03
2023-04-21T03:55:35.491Z,98773.16
2023-04-21T03:58:02.874Z,98779.84
2023-04-21T04:00:30.105Z,98782.06
2023-04-21T04:02:57.078Z,98777.31
2023-04-21T04:05:24.676Z,98785.72
2023-04-21T04:07:51.615Z,98785.34
2023-04-21T04:10:19.366Z,98780.47
2023-04-21T04:12:46.268Z,98780.84
2023-04-21T04:15:13.511Z,98786.31
2023-04-21T04:17:40.487Z,98794.28
2023-04-21T04:20:08.625Z,98784.69
2023-04-21T04:22:35.866Z,98784.53
2023-04-21T04:25:03.975Z,98798.31
2023-04-21T04:27:31.086Z,98799.84
2023-04-21T04:29:58.277Z,98795.03
2023-04-21T04:32:28.536Z,98789.28
2023-04-21T04:34:55.981Z,98790.22
2023-04-21T04:37:23.026Z,98799.94
2023-04-21T04:39:53.910Z,98798.19
2023-04-21T04:42:20.878Z,98798.94
2023-04-21T04:44:48.183Z,98799.53
2023-04-21T04:47:15.045Z,98791.13
2023-04-21T04:49:42.269Z,98797.66
2023-04-21T04:52:09.116Z,98799.88
2023-04-21T04:54:36.496Z,98801.72
2023-04-21T04:57:03.614Z,98803.53
2023-04-21T04:59:31.382Z,98812.28
2023-04-21T05:01:58.350Z,98805.78
2023-04-21T05:04:26.119Z,98804.88
2023-04-21T05:06:53.478Z,98810.44
2023-04-21T05:09:21.032Z,98803.47
2023-04-21T05:11:47.994Z,98803.03
2023-04-21T05:14:15.317Z,98795.72
2023-04-21T05:16:43.967Z,98795.47
2023-04-21T05:19:11.296Z,98801.66
2023-04-21T05:21:38.228Z,98790.72
2023-04-21T05:24:05.459Z,98792.50
2023-04-21T05:26:32.385Z,98794.41
2023-04-21T05:28:59.564Z,98795.31
2023-04-21T05:31:26.925Z,98793.88
2023-04-21T05:33:54.093Z,98805.34
2023-04-21T05:36:20.925Z,98804.53
2023-04-21T05:38:48.139Z,98808.94
2023-04-21T05:41:15.238Z,98807.53
2023-04-21T05:43:42.381Z,98806.38
2023-04-21T05:46:11.139Z,98808.72
2023-04-21T05:48:38.538Z,98807.28
2023-04-21T05:51:13.842Z,98800.59
2023-04-21T05:53:42.842Z,98800.66
2023-04-21T05:56:10.322Z,98799.72
2023-04-21T05:59:07.149Z,98786.94
2023-04-21T06:01:34.097Z,98790.44
2023-04-21T06:04:01.508Z,98793.50
2023-04-21T06:06:28.585Z,98790.03
2023-04-21T06:08:55.745Z,98787.06
2023-04-21T06:11:22.598Z,98771.88
2023-04-21T06:13:50.888Z,98780.63
2023-04-21T06:16:17.745Z,98774.03
2023-04-21T06:18:44.862Z,98775.69
2023-04-21T06:21:11.718Z,98770.03
2023-04-21T06:23:38.947Z,98776.47
2023-04-21T06:26:07.247Z,98779.78
2023-04-21T06:28:36.296Z,98775.25
2023-04-21T06:31:06.220Z,98779.38
2023-04-21T06:33:36.178Z,98770.88
2023-04-21T06:36:03.166Z,98776.91
2023-04-21T06:38:30.321Z,98774.75
2023-04-21T06:40:57.432Z,98766.91
2023-04-21T06:43:24.646Z,98771.19
2023-04-21T06:45:51.506Z,98771.38
2023-04-21T06:48:18.754Z,98774.72
2023-04-21T06:50:46.548Z,98774.63
2023-04-21T06:53:13.760Z,98777.97
2023-04-21T06:55:40.839Z,98770.44
2023-04-21T06:58:07.976Z,98782.84
2023-04-21T07:00:34.841Z,98776.09
2023-04-21T07:03:02.155Z,98783.97
2023-04-21T07:05:29.191Z,98785.09
2023-04-21T07:07:59.831Z,98777.06
2023-04-21T07:10:27.805Z,98782.81
2023-04-21T07:12:55.852Z,98778.88
2023-04-21T07:15:23.112Z,98783.47
2023-04-21T07:17:50.231Z,98779.84
2023-04-21T07:20:18.942Z,98773.06
2023-04-21T07:22:45.982Z,98774.31
2023-04-21T07:25:13.196Z,98771.78
2023-04-21T07:27:40.104Z,98772.66
2023-04-21T07:30:08.216Z,98767.50
2023-04-21T07:32:35.284Z,98767.13
2023-04-21T07:35:03.167Z,98772.94
2023-04-21T07:37:30.879Z,98766.25
2023-04-21T07:39:58.089Z,98762.97
2023-04-21T07:42:26.787Z,98762.38
2023-04-21T07:44:54.943Z,98763.84
2023-04-21T07:47:21.966Z,98757.53
2023-04-21T07:49:49.164Z,98765.66
2023-04-21T07:52:16.021Z,98762.31
2023-04-21T07:54:43.166Z,98763.91
2023-04-21T07:57:10.129Z,98757.88
2023-04-21T07:59:37.335Z,98755.56
2023-04-21T08:02:04.387Z,98763.44
2023-04-21T08:04:31.805Z,98756.53
2023-04-21T08:06:59.180Z,98757.16
2023-04-21T08:09:27.213Z,98759.63
2023-04-21T08:11:55.323Z,98755.59
2023-04-21T08:14:22.614Z,98760.91
2023-04-21T08:16:49.699Z,98757.63
2023-04-21T08:19:17.041Z,98755.75
2023-04-21T08:21:44.043Z,98756.47
2023-04-21T08:24:11.306Z,98751.38
2023-04-21T08:26:38.264Z,98756.56
2023-04-21T08:29:07.449Z,98748.97
2023-04-21T08:31:34.610Z,98749.97
2023-04-21T08:34:02.993Z,98746.91
2023-04-21T08:36:30.861Z,98747.81
2023-04-21T08:38:58.748Z,98746.88
2023-04-21T08:41:26.802Z,98744.31
2023-04-21T08:43:53.982Z,98740.06
2023-04-21T08:46:21.699Z,98737.31
2023-04-21T08:48:48.919Z,98736.41
2023-04-21T08:51:21.978Z,98739.00
2023-04-21T08:53:49.185Z,98735.53
2023-04-21T08:56:16.093Z,98729.16
2023-04-21T08:58:43.279Z,98733.53
2023-04-21T09:01:10.197Z,98722.28
2023-04-21T09:03:37.686Z,98714.25
2023-04-21T09:06:07.962Z,98712.53
2023-04-21T09:08:43.095Z,98711.44
2023-04-21T09:11:14.247Z,98702.31
2023-04-21T09:13:42.836Z,98697.03
2023-04-21T09:16:22.421Z,98686.50
2023-04-21T09:18:51.708Z,98689.56
2023-04-21T09:21:20.394Z,98686.50
2023-04-21T09:23:49.986Z,98696.38
2023-04-21T09:26:18.170Z,98690.56
2023-04-21T09:28:46.939Z,98687.88
2023-04-21T09:31:15.767Z,98689.13
2023-04-21T09:36:26.312Z,98690.28
2023-04-21T09:39:20.580Z,98683.16
2023-04-21T09:41:45.085Z,98671.66
2023-04-21T09:44:12.290Z,98694.91
2023-04-21T09:46:44.323Z,98684.53
2023-04-21T09:49:13.898Z,98690.13
2023-04-21T09:52:05.326Z,98699.16
2023-04-21T09:54:31.673Z,98690.22
2023-04-21T09:57:02.340Z,98681.41
2023-04-21T09:59:33.024Z,98685.16
2023-04-21T10:02:01.456Z,98684.53
2023-04-21T10:04:31.574Z,98662.69
2023-04-21T10:07:00.699Z,98671.84
2023-04-21T10:09:35.448Z,98677.31
2023-04-21T10:12:04.496Z,98675.41
2023-04-21T10:14:32.333Z,98670.88
2023-04-21T10:17:07.593Z,98679.06
2023-04-21T10:19:39.825Z,98666.72
2023-04-21T10:22:09.203Z,98662.50
2023-04-21T10:24:41.188Z,98658.88
2023-04-21T10:27:12.812Z,98661.56
2023-04-21T10:29:55.195Z,98652.50
2023-04-21T10:32:43.274Z,98661.25
2023-04-21T10:35:16.102Z,98647.50
2023-04-21T10:37:43.630Z,98651.56
2023-04-21T10:43:06.148Z,98649.13
2023-04-21T10:45:33.308Z,98641.19
2023-04-21T10:48:02.661Z,98643.19
2023-04-21T10:50:31.648Z,98639.75
2023-04-21T10:53:12.074Z,98641.13
2023-04-21T10:55:39.820Z,98631.19
2023-04-21T10:58:11.902Z,98630.84
2023-04-21T11:00:39.444Z,98637.97
2023-04-21T11:03:08.031Z,98628.94
2023-04-21T11:05:40.765Z,98627.97
2023-04-21T11:08:14.009Z,98622.22
2023-04-21T11:10:51.574Z,98623.34
2023-04-21T11:13:21.623Z,98618.38
2023-04-21T11:16:00.975Z,98616.63
2023-04-21T11:18:33.885Z,98611.44
2023-04-21T11:21:18.810Z,98618.13
2023-04-21T11:23:56.724Z,98607.78
2023-04-21T11:26:31.943Z,98606.25
2023-04-21T11:29:07.199Z,98609.44
2023-04-21T11:31:36.654Z,98598.81
2023-04-21T11:34:05.402Z,98608.88
2023-04-21T11:36:33.926Z,98613.91
2023-04-21T11:39:08.399Z,98606.59
2023-04-21T11:41:36.853Z,98612.38
2023-04-21T11:44:03.858Z,98608.75
2023-04-21T11:46:33.482Z,98607.50
2023-04-21T11:49:08.483Z,98608.44
2023-04-21T11:51:37.424Z,98603.66
2023-04-21T11:54:09.511Z,98597.63
2023-04-21T11:56:42.032Z,98597.28
2023-04-21T11:59:13.742Z,98594.97
2023-04-21T12:01:47.478Z,98590.97
2023-04-21T12:04:22.299Z,98599.16
2023-04-21T12:07:00.660Z,98589.72
2023-04-21T12:09:29.370Z,98585.00
2023-04-21T12:11:58.994Z,98584.75
2023-04-21T12:14:29.278Z,98573.91
2023-04-21T12:16:58.367Z,98578.22
2023-04-21T12:19:39.728Z,98579.78
2023-04-21T12:22:09.535Z,98580.59
2023-04-21T12:24:37.555Z,98578.69
2023-04-21T12:27:05.767Z,98578.28
2023-04-21T12:29:35.692Z,98574.13
2023-04-21T12:32:03.507Z,98571.38
2023-04-21T12:34:30.641Z,98563.97
2023-04-21T12:36:57.816Z,98559.34
2023-04-21T12:39:24.762Z,98560.06
2023-04-21T12:41:51.933Z,98561.75
2023-04-21T12:44:18.846Z,98555.22
2023-04-21T12:46:46.233Z,98558.94
2023-04-21T12:49:13.155Z,98553.28
2023-04-21T12:51:40.300Z,98557.94
2023-04-21T12:54:07.210Z,98566.69
2023-04-21T12:56:34.404Z,98560.50
2023-04-21T12:59:01.414Z,98554.31
2023-04-21T13:01:28.655Z,98558.31
2023-04-21T13:03:55.797Z,98549.75
2023-04-21T13:06:23.048Z,98555.13
2023-04-21T13:08:49.987Z,98548.25
2023-04-21T13:11:17.166Z,98558.69
2023-04-21T13:13:44.097Z,98546.69
2023-04-21T13:16:11.361Z,98541.97
2023-04-21T13:18:39.118Z,98537.59
2023-04-21T13:21:06.544Z,98536.78
2023-04-21T13:23:33.610Z,98543.00
2023-04-21T13:26:01.145Z,98538.28
2023-04-21T13:28:28.062Z,98535.22
2023-04-21T13:30:55.226Z,98537.88
2023-04-21T13:33:22.320Z,98533.41
2023-04-21T13:35:49.810Z,98539.72
2023-04-21T13:38:17.268Z,98537.97
2023-04-21T13:40:45.896Z,98530.19
2023-04-21T13:43:12.725Z,98533.22
2023-04-21T13:45:39.991Z,98520.53
2023-04-21T13:48:06.946Z,98524.25
2023-04-21T13:50:34.156Z,98520.50
2023-04-21T13:53:00.998Z,98524.69
2023-04-21T13:55:28.160Z,98522.03
2023-04-21T13:57:55.382Z,98516.97
2023-04-21T14:00:22.803Z,98524.72
2023-04-21T14:02:50.180Z,98523.19
2023-04-21T14:05:17.914Z,98513.53
2023-04-21T14:07:45.017Z,98508.31
2023-04-21T14:10:12.582Z,98513.41
2023-04-21T14:12:39.384Z,98508.53
2023-04-21T14:15:07.316Z,98498.72
2023-04-21T14:17:34.224Z,98505.69
2023-04-21T14:20:01.841Z,98503.00
2023-04-21T14:22:28.844Z,98495.78
2023-04-21T14:24:56.119Z,98496.78
2023-04-21T14:27:36.521Z,98493.00
2023-04-21T14:30:04.654Z,98496.59
2023-04-21T14:32:31.588Z,98506.06
2023-04-21T14:35:00.695Z,98500.00
2023-04-21T14:37:27.644Z,98504.38
2023-04-21T14:39:54.861Z,98500.44
2023-04-21T14:42:21.880Z,98498.19
2023-04-21T14:44:49.068Z,98495.38
2023-04-21T14:47:16.182Z,98498.31
2023-04-21T14:49:43.595Z,98494.72
2023-04-21T14:52:10.444Z,98486.88
2023-04-21T14:54:37.601Z,98489.50
2023-04-21T14:57:19.102Z,98495.03
2023-04-21T14:59:50.013Z,98494.81
2023-04-21T15:02:17.130Z,98495.31
2023-04-21T15:04:44.641Z,98494.16
2023-04-21T15:07:12.027Z,98491.06
2023-04-21T15:09:39.304Z,98489.19
2023-04-21T15:12:06.482Z,98483.91
2023-04-21T15:14:33.709Z,98492.69
2023-04-21T15:17:00.623Z,98486.75
2023-04-21T15:19:27.785Z,98485.09
2023-04-21T15:21:55.252Z,98485.94
2023-04-21T15:24:22.579Z,98486.50
2023-04-21T15:26:49.482Z,98480.00
2023-04-21T15:29:16.756Z,98474.63
2023-04-21T15:31:43.698Z,98477.03
2023-04-21T15:34:10.942Z,98488.91
2023-04-21T15:36:37.807Z,98483.63
2023-04-21T15:39:04.894Z,98486.88
2023-04-21T15:41:32.003Z,98484.06
2023-04-21T15:44:00.256Z,98489.97
2023-04-21T15:46:27.178Z,98483.78
2023-04-21T15:48:54.517Z,98484.81
2023-04-21T15:51:21.500Z,98487.19
2023-04-21T15:53:49.492Z,98481.09
2023-04-21T15:56:16.891Z,98480.94
2023-04-21T15:58:44.310Z,98477.25
2023-04-21T16:01:11.516Z,98476.81
2023-04-21T16:03:40.288Z,98471.75
2023-04-21T16:06:07.830Z,98470.16
2023-04-21T16:08:35.101Z,98474.94
2023-04-21T16:11:02.156Z,98469.16
2023-04-21T16:13:29.708Z,98473.09
2023-04-21T16:15:56.841Z,98468.38
2023-04-21T16:18:24.273Z,98460.34
2023-04-21T16:20:51.294Z,98463.78
2023-04-21T16:23:18.693Z,98462.84
2023-04-21T16:25:45.821Z,98468.16
2023-04-21T16:28:12.946Z,98466.28
2023-04-21T16:30:43.628Z,98466.19
2023-04-21T16:33:11.731Z,98466.97
2023-04-21T16:35:39.467Z,98468.00
2023-04-21T16:38:07.015Z,98465.97
2023-04-21T16:40:34.367Z,98467.00
2023-04-21T16:43:01.657Z,98467.75
2023-04-21T16:45:29.639Z,98471.25
2023-04-21T16:47:57.936Z,98476.63
2023-04-21T16:50:25.314Z,98474.81
2023-04-21T16:52:52.558Z,98477.28
2023-04-21T16:55:20.217Z,98476.31
2023-04-21T16:57:47.476Z,98477.31
2023-04-21T17:00:14.871Z,98480.94
2023-04-21T17:02:42.229Z,98476.59
2023-04-21T17:05:09.731Z,98469.78
2023-04-21T17:07:36.956Z,98471.53
2023-04-21T17:10:03.931Z,98473.59
2023-04-21T17:12:31.229Z,98476.34
2023-04-21T17:14:58.093Z,98471.09
2023-04-21T17:17:25.529Z,98473.13
2023-04-21T17:19:54.174Z,98475.00
2023-04-21T17:22:21.350Z,98476.13
2023-04-21T17:24:53.743Z,98467.38
2023-04-21T17:27:21.530Z,98469.34
2023-04-21T17:29:48.585Z,98477.34
2023-04-21T17:32:15.918Z,98476.53
2023-04-21T17:34:42.883Z,98474.94
2023-04-21T17:37:10.119Z,98480.28
2023-04-21T17:39:38.705Z,98480.41
2023-04-21T17:42:06.590Z,98478.81
2023-04-21T17:44:33.420Z,98486.03
2023-04-21T17:47:00.757Z,98480.16
2023-04-21T17:49:27.691Z,98485.84
2023-04-21T17:51:54.902Z,98485.38
2023-04-21T17:54:21.758Z,98490.47
2023-04-21T17:56:48.915Z,98495.38
2023-04-21T17:59:15.860Z,98501.38
2023-04-21T18:01:42.994Z,98499.44
2023-04-21T18:04:10.161Z,98494.94
2023-04-21T18:06:37.668Z,98500.59
2023-04-21T18:09:05.199Z,98501.88
2023-04-21T18:11:32.551Z,98505.25
2023-04-21T18:13:59.612Z,98512.94
2023-04-21T18:16:27.108Z,98522.53
2023-04-21T18:18:54.000Z,98521.72
2023-04-21T18:21:21.859Z,98522.47
2023-04-21T18:23:49.260Z,98514.47
2023-04-21T18:26:16.521Z,98517.13
2023-04-21T18:28:43.382Z,98522.16
2023-04-21T18:31:10.600Z,98521.31
2023-04-21T18:33:37.543Z,98521.03
2023-04-21T18:36:05.213Z,98520.88
2023-04-21T18:38:32.175Z,98528.50
2023-04-21T18:40:59.591Z,98528.38
2023-04-21T18:43:26.490Z,98527.06
2023-04-21T18:45:53.669Z,98527.78
2023-04-21T18:48:20.543Z,98526.63
2023-04-21T18:50:47.802Z,98537.75
2023-04-21T18:53:14.741Z,98529.47
2023-04-21T18:55:41.842Z,98528.22
2023-04-21T18:58:08.798Z,98528.75
2023-04-21T19:00:39.084Z,98534.53
2023-04-21T19:03:06.905Z,98534.03
2023-04-21T19:05:36.256Z,98535.31
2023-04-21T19:08:03.146Z,98541.00
2023-04-21T19:10:30.485Z,98531.16
2023-04-21T19:12:57.329Z,98536.84
2023-04-21T19:15:24.491Z,98533.88
2023-04-21T19:17:51.430Z,98526.41
2023-04-21T19:20:18.697Z,98527.59
2023-04-21T19:22:45.833Z,98527.88
2023-04-21T19:25:13.046Z,98530.69
2023-04-21T19:27:40.932Z,98531.91
2023-04-21T19:30:08.909Z,98521.69
2023-04-21T19:32:35.904Z,98533.47
2023-04-21T19:35:03.093Z,98533.81
2023-04-21T19:37:32.232Z,98533.28
2023-04-21T19:40:00.946Z,98536.19
2023-04-21T19:42:27.961Z,98525.94
2023-04-21T19:44:55.100Z,98532.38
2023-04-21T19:47:22.025Z,98530.00
2023-04-21T19:49:49.313Z,98531.16
2023-04-21T19:52:16.369Z,98527.94
2023-04-21T19:54:43.477Z,98529.03
2023-04-21T19:57:10.383Z,98533.75
2023-04-21T19:59:37.854Z,98528.75
2023-04-21T20:02:05.139Z,98530.78
2023-04-21T20:04:34.708Z,98524.91
2023-04-21T20:07:01.817Z,98530.47
2023-04-21T20:09:29.480Z,98527.97
2023-04-21T20:11:56.665Z,98531.88
2023-04-21T20:14:23.856Z,98529.44
2023-04-21T20:16:50.811Z,98532.16
2023-04-21T20:19:18.023Z,98530.56
2023-04-21T20:21:45.021Z,98531.66
2023-04-21T20:24:12.445Z,98538.91
2023-04-21T20:26:39.391Z,98541.81
2023-04-21T20:29:06.589Z,98536.00
2023-04-21T20:31:33.506Z,98530.19
2023-04-21T20:34:00.738Z,98530.22
2023-04-21T20:36:28.501Z,98528.69
2023-04-21T20:38:57.734Z,98527.06
2023-04-21T20:41:24.630Z,98533.47
2023-04-21T20:43:52.267Z,98530.19
2023-04-21T20:46:19.179Z,98532.22
2023-04-21T20:48:46.830Z,98532.31
2023-04-21T20:51:13.700Z,98534.22
2023-04-21T20:53:40.839Z,98526.47
2023-04-21T20:56:07.802Z,98536.31
2023-04-21T20:58:36.205Z,98539.06
2023-04-21T21:01:03.143Z,98534.59
2023-04-21T21:03:30.940Z,98532.09
2023-04-21T21:05:57.976Z,98534.81
2023-04-21T21:08:25.693Z,98536.78
2023-04-21T21:10:52.505Z,98534.50
2023-04-21T21:13:19.652Z,98547.66
2023-04-21T21:15:46.976Z,98540.91
2023-04-21T21:18:14.172Z,98546.22
2023-04-21T21:20:41.005Z,98546.47
2023-04-21T21:23:08.191Z,98539.59
2023-04-21T21:25:35.311Z,98540.59
2023-04-21T21:28:02.593Z,98536.34
2023-04-21T21:30:29.475Z,98538.28
2023-04-21T21:32:56.752Z,98540.84
2023-04-21T21:35:23.833Z,98540.94
2023-04-21T21:37:51.024Z,98542.81
2023-04-21T21:40:17.855Z,98537.63
2023-04-21T21:42:45.056Z,98544.81
2023-04-21T21:45:12.138Z,98539.72
2023-04-21T21:47:43.866Z,98547.72
2023-04-21T21:50:14.854Z,98548.75
2023-04-21T21:52:42.016Z,98547.09
2023-04-21T21:55:09.196Z,98554.19
2023-04-21T21:57:37.043Z,98553.38
2023-04-21T22:00:09.105Z,98558.66
2023-04-21T22:02:36.388Z,98562.19
2023-04-21T22:05:06.304Z,98557.94
2023-04-21T22:07:33.525Z,98559.00
2023-04-21T22:10:00.502Z,98560.91
2023-04-21T22:12:27.698Z,98553.31
2023-04-21T22:14:54.610Z,98555.19
2023-04-21T22:17:22.704Z,98548.31
2023-04-21T22:19:49.789Z,98550.16
2023-04-21T22:22:16.972Z,98553.66
2023-04-21T22:24:43.844Z,98556.34
2023-04-21T22:27:11.037Z,98553.81
2023-04-21T22:29:38.356Z,98558.28
2023-04-21T22:32:05.670Z,98557.41
2023-04-21T22:34:32.526Z,98560.97
2023-04-21T22:36:59.684Z,98557.59
2023-04-21T22:39:26.580Z,98561.22
2023-04-21T22:41:53.730Z,98560.47
2023-04-21T22:44:20.872Z,98560.47
2023-04-21T22:46:48.433Z,98558.06
2023-04-21T22:49:15.357Z,98555.56
2023-04-21T22:51:44.369Z,98564.34
2023-04-21T22:54:11.250Z,98555.63
2023-04-21T22:56:38.482Z,98566.97
2023-04-21T22:59:05.869Z,98566.97
2023-04-21T23:01:33.180Z,98558.44
2023-04-21T23:04:00.131Z,98561.09
2023-04-21T23:06:28.447Z,98567.28
2023-04-21T23:08:55.409Z,98556.94
2023-04-21T23:11:22.584Z,98563.13
2023-04-21T23:13:49.422Z,98565.81
2023-04-21T23:16:16.656Z,98563.34
2023-04-21T23:18:43.516Z,98556.47
2023-04-21T23:21:10.850Z,98561.75
2023-04-21T23:23:37.740Z,98558.28
2023-04-21T23:26:05.690Z,98561.00
2023-04-21T23:28:32.628Z,98567.16
2023-04-21T23:30:59.812Z,98557.69
2023-04-21T23:33:27.130Z,98559.47
2023-04-21T23:35:54.962Z,98561.28
2023-04-21T23:38:21.904Z,98562.22
2023-04-21T23:40:49.183Z,98557.88
2023-04-21T23:43:16.067Z,98557.97
2023-04-21T23:45:43.357Z,98550.16
2023-04-21T23:48:10.351Z,98555.38
2023-04-21T23:50:37.672Z,98548.41
2023-04-21T23:53:04.545Z,98549.44
2023-04-21T23:55:31.962Z,98550.44
2023-04-21T23:57:58.755Z,98557.41
